CMP8205 SKIB-SEQM
Flight info
| Callsign | CMP8205 |
|---|---|
| Flight time | 0h 59m |
| Altitude | 34000 |
| Route | USANA2B USANA DCT BOKAN/N0451F330 UP533 QIT DCT |
| Aircraft | B739/M-SDE2E3FGHIRWXY/LB1 |
Departure
| Time | 2026-05-05 19:56 |
|---|---|
| Airport | Perales Airport (SKIB) |
Arrival
| Time | 2026-05-05 20:55 |
|---|---|
| Airport | Mariscal Sucre International Airport (SEQM) |
| Time | Latitude | Longitude | Altitude | Speed | Heading |
|---|---|---|---|---|---|
| 2026-05-05 19:36 | 4.42420 | -75.13825 | 3037 ft | 0 kts | 217° |
| 2026-05-05 19:46 | 4.42421 | -75.13824 | 3035 ft | 0 kts | 217° |
| 2026-05-05 19:46 | 4.42422 | -75.13823 | 3035 ft | 0 kts | 217° |
| 2026-05-05 19:46 | 4.42424 | -75.13822 | 3035 ft | 0 kts | 218° |
| 2026-05-05 19:46 | 4.42427 | -75.13819 | 3039 ft | 1 kts | 224° |
| 2026-05-05 19:47 | 4.42431 | -75.13815 | 3037 ft | 1 kts | 265° |
| 2026-05-05 19:47 | 4.42431 | -75.13810 | 3036 ft | 1 kts | 296° |
| 2026-05-05 19:47 | 4.42430 | -75.13807 | 3036 ft | 0 kts | 308° |
| 2026-05-05 19:49 | 4.42430 | -75.13808 | 3036 ft | 1 kts | 308° |
| 2026-05-05 19:49 | 4.42459 | -75.13839 | 3037 ft | 8 kts | 324° |
| 2026-05-05 19:49 | 4.42477 | -75.13847 | 3038 ft | 1 kts | 338° |
| 2026-05-05 19:50 | 4.42481 | -75.13849 | 3038 ft | 1 kts | 338° |
| 2026-05-05 19:50 | 4.42484 | -75.13850 | 3038 ft | 1 kts | 338° |
| 2026-05-05 19:50 | 4.42489 | -75.13852 | 3039 ft | 2 kts | 339° |
| 2026-05-05 19:50 | 4.42518 | -75.13863 | 3040 ft | 5 kts | 341° |
| 2026-05-05 19:51 | 4.42552 | -75.13874 | 3041 ft | 7 kts | 341° |
| 2026-05-05 19:51 | 4.42611 | -75.13894 | 3039 ft | 8 kts | 338° |
| 2026-05-05 19:51 | 4.42652 | -75.13929 | 3043 ft | 8 kts | 302° |
| 2026-05-05 19:51 | 4.42665 | -75.13971 | 3045 ft | 4 kts | 303° |
| 2026-05-05 19:52 | 4.42687 | -75.13976 | 3047 ft | 2 kts | 17° |
| 2026-05-05 19:52 | 4.42690 | -75.13963 | 3046 ft | 2 kts | 102° |
| 2026-05-05 19:52 | 4.42678 | -75.13950 | 3045 ft | 0 kts | 133° |
| 2026-05-05 19:54 | 4.42678 | -75.13949 | 3045 ft | 0 kts | 133° |
| 2026-05-05 19:55 | 4.42514 | -75.13764 | 3036 ft | 78 kts | 131° |
| 2026-05-05 19:55 | 4.41992 | -75.13167 | 2990 ft | 151 kts | 131° |
| 2026-05-05 19:55 | 4.41184 | -75.12259 | 3231 ft | 191 kts | 131° |
| 2026-05-05 19:55 | 4.40192 | -75.11141 | 3587 ft | 236 kts | 133° |
| 2026-05-05 19:56 | 4.38789 | -75.10305 | 4594 ft | 233 kts | 168° |
| 2026-05-05 19:56 | 4.37249 | -75.09944 | 5773 ft | 231 kts | 168° |
| 2026-05-05 19:56 | 4.35609 | -75.09554 | 6161 ft | 255 kts | 169° |
| 2026-05-05 19:56 | 4.33818 | -75.09120 | 6627 ft | 270 kts | 168° |
| 2026-05-05 19:57 | 4.31973 | -75.08666 | 7330 ft | 275 kts | 168° |
| 2026-05-05 19:57 | 4.30738 | -75.08361 | 7824 ft | 278 kts | 167° |
| 2026-05-05 19:57 | 4.28204 | -75.07733 | 8837 ft | 283 kts | 167° |
| 2026-05-05 19:57 | 4.26312 | -75.07262 | 9605 ft | 287 kts | 167° |
| 2026-05-05 19:58 | 4.24359 | -75.06777 | 10276 ft | 292 kts | 166° |
| 2026-05-05 19:58 | 4.22317 | -75.06269 | 10481 ft | 315 kts | 166° |
| 2026-05-05 19:58 | 4.20123 | -75.05724 | 10763 ft | 331 kts | 166° |
| 2026-05-05 19:58 | 4.17914 | -75.05176 | 11268 ft | 338 kts | 166° |
| 2026-05-05 19:59 | 4.15575 | -75.04603 | 11904 ft | 342 kts | 165° |
| 2026-05-05 19:59 | 4.13237 | -75.04032 | 12516 ft | 346 kts | 165° |
| 2026-05-05 19:59 | 4.10888 | -75.03459 | 13155 ft | 350 kts | 165° |
| 2026-05-05 19:59 | 4.08506 | -75.02878 | 13756 ft | 354 kts | 165° |
| 2026-05-05 20:00 | 4.06102 | -75.02291 | 14317 ft | 358 kts | 165° |
| 2026-05-05 20:00 | 4.03701 | -75.01704 | 14891 ft | 362 kts | 165° |
| 2026-05-05 20:00 | 4.01242 | -75.01104 | 15448 ft | 365 kts | 165° |
| 2026-05-05 20:00 | 3.98765 | -75.00498 | 15993 ft | 369 kts | 165° |
| 2026-05-05 20:01 | 3.96255 | -74.99885 | 16521 ft | 373 kts | 164° |
| 2026-05-05 20:01 | 3.93729 | -74.99268 | 17076 ft | 376 kts | 164° |
| 2026-05-05 20:01 | 3.91176 | -74.98645 | 17590 ft | 380 kts | 165° |
| 2026-05-05 20:01 | 3.88534 | -74.98362 | 18068 ft | 388 kts | 183° |
| 2026-05-05 20:02 | 3.85904 | -74.99034 | 18492 ft | 395 kts | 203° |
| 2026-05-05 20:02 | 3.83613 | -75.00564 | 18951 ft | 400 kts | 220° |
| 2026-05-05 20:02 | 3.81562 | -75.02468 | 19407 ft | 403 kts | 223° |
| 2026-05-05 20:02 | 3.79564 | -75.04400 | 19816 ft | 407 kts | 223° |
| 2026-05-05 20:03 | 3.77534 | -75.06386 | 20233 ft | 410 kts | 223° |
| 2026-05-05 20:03 | 3.75486 | -75.08386 | 20648 ft | 413 kts | 223° |
| 2026-05-05 20:03 | 3.73418 | -75.10392 | 21072 ft | 415 kts | 223° |
| 2026-05-05 20:03 | 3.71330 | -75.12405 | 21480 ft | 418 kts | 223° |
| 2026-05-05 20:04 | 3.69228 | -75.14421 | 21881 ft | 421 kts | 223° |
| 2026-05-05 20:04 | 3.67104 | -75.16450 | 22274 ft | 423 kts | 223° |
| 2026-05-05 20:04 | 3.64965 | -75.18489 | 22673 ft | 426 kts | 223° |
| 2026-05-05 20:04 | 3.62839 | -75.20515 | 23039 ft | 429 kts | 222° |
| 2026-05-05 20:05 | 3.60675 | -75.22575 | 23391 ft | 431 kts | 222° |
| 2026-05-05 20:05 | 3.58491 | -75.24653 | 23710 ft | 434 kts | 223° |
| 2026-05-05 20:05 | 3.56300 | -75.26738 | 24035 ft | 436 kts | 223° |
| 2026-05-05 20:05 | 3.54099 | -75.28834 | 24364 ft | 437 kts | 223° |
| 2026-05-05 20:06 | 3.51892 | -75.30935 | 24692 ft | 439 kts | 223° |
| 2026-05-05 20:06 | 3.49673 | -75.33047 | 25001 ft | 441 kts | 223° |
| 2026-05-05 20:06 | 3.47449 | -75.35164 | 25327 ft | 443 kts | 223° |
| 2026-05-05 20:06 | 3.45211 | -75.37293 | 25605 ft | 444 kts | 222° |
| 2026-05-05 20:07 | 3.42996 | -75.39402 | 25897 ft | 446 kts | 223° |
| 2026-05-05 20:07 | 3.40742 | -75.41547 | 26189 ft | 448 kts | 222° |
| 2026-05-05 20:07 | 3.38476 | -75.43703 | 26487 ft | 450 kts | 222° |
| 2026-05-05 20:07 | 3.36212 | -75.45858 | 26768 ft | 452 kts | 222° |
| 2026-05-05 20:08 | 3.33921 | -75.48037 | 27042 ft | 454 kts | 222° |
| 2026-05-05 20:08 | 3.31626 | -75.50220 | 27345 ft | 456 kts | 222° |
| 2026-05-05 20:08 | 3.29323 | -75.52411 | 27627 ft | 458 kts | 222° |
| 2026-05-05 20:08 | 3.27015 | -75.54606 | 27907 ft | 459 kts | 222° |
| 2026-05-05 20:09 | 3.24694 | -75.56814 | 28178 ft | 461 kts | 222° |
| 2026-05-05 20:09 | 3.22363 | -75.59032 | 28454 ft | 463 kts | 222° |
| 2026-05-05 20:09 | 3.20058 | -75.61223 | 28722 ft | 464 kts | 222° |
| 2026-05-05 20:09 | 3.17718 | -75.63449 | 28987 ft | 466 kts | 223° |
| 2026-05-05 20:10 | 3.15358 | -75.65693 | 29263 ft | 468 kts | 222° |
| 2026-05-05 20:10 | 3.12996 | -75.67939 | 29520 ft | 470 kts | 222° |
| 2026-05-05 20:10 | 3.10626 | -75.70192 | 29766 ft | 472 kts | 222° |
| 2026-05-05 20:10 | 3.08240 | -75.72460 | 30013 ft | 473 kts | 222° |
| 2026-05-05 20:11 | 3.05853 | -75.74729 | 30245 ft | 475 kts | 222° |
| 2026-05-05 20:11 | 3.03451 | -75.77012 | 30441 ft | 476 kts | 222° |
| 2026-05-05 20:11 | 3.01082 | -75.79265 | 30658 ft | 477 kts | 222° |
| 2026-05-05 20:11 | 2.98678 | -75.81551 | 30961 ft | 476 kts | 222° |
| 2026-05-05 20:12 | 2.96281 | -75.83829 | 31292 ft | 474 kts | 222° |
| 2026-05-05 20:12 | 2.93891 | -75.86101 | 31610 ft | 474 kts | 222° |
| 2026-05-05 20:12 | 2.91501 | -75.88373 | 31887 ft | 474 kts | 222° |
| 2026-05-05 20:12 | 2.89110 | -75.90644 | 32190 ft | 473 kts | 222° |
| 2026-05-05 20:13 | 2.86726 | -75.92910 | 32511 ft | 472 kts | 222° |
| 2026-05-05 20:13 | 2.84348 | -75.95170 | 32856 ft | 471 kts | 222° |
| 2026-05-05 20:13 | 2.82003 | -75.97397 | 33169 ft | 471 kts | 222° |
| 2026-05-05 20:13 | 2.79633 | -75.99648 | 33503 ft | 470 kts | 222° |
| 2026-05-05 20:14 | 2.77265 | -76.01898 | 33869 ft | 469 kts | 222° |
| 2026-05-05 20:14 | 2.74903 | -76.04142 | 34064 ft | 468 kts | 222° |
| 2026-05-05 20:14 | 2.72539 | -76.06387 | 34065 ft | 469 kts | 222° |
| 2026-05-05 20:15 | 2.67796 | -76.10892 | 34077 ft | 470 kts | 222° |
| 2026-05-05 20:15 | 2.63085 | -76.15365 | 34073 ft | 470 kts | 222° |
| 2026-05-05 20:16 | 2.58350 | -76.19862 | 34070 ft | 469 kts | 222° |
| 2026-05-05 20:16 | 2.53613 | -76.24360 | 34074 ft | 471 kts | 222° |
| 2026-05-05 20:17 | 2.48845 | -76.28886 | 34099 ft | 474 kts | 222° |
| 2026-05-05 20:17 | 2.44046 | -76.33443 | 34114 ft | 478 kts | 222° |
| 2026-05-05 20:18 | 2.39233 | -76.38010 | 34111 ft | 480 kts | 222° |
| 2026-05-05 20:18 | 2.34418 | -76.42580 | 34111 ft | 475 kts | 222° |
| 2026-05-05 20:19 | 2.29659 | -76.47098 | 34110 ft | 468 kts | 222° |
| 2026-05-05 20:19 | 2.24987 | -76.51531 | 34109 ft | 460 kts | 222° |
| 2026-05-05 20:20 | 2.20311 | -76.55966 | 34127 ft | 467 kts | 222° |
| 2026-05-05 20:20 | 2.15595 | -76.60439 | 34117 ft | 473 kts | 222° |
| 2026-05-05 20:21 | 2.10810 | -76.64979 | 34100 ft | 475 kts | 222° |
| 2026-05-05 20:21 | 2.06005 | -76.69537 | 34096 ft | 477 kts | 222° |
| 2026-05-05 20:22 | 2.01174 | -76.74119 | 34091 ft | 480 kts | 222° |
| 2026-05-05 20:22 | 1.96387 | -76.78659 | 34081 ft | 475 kts | 222° |
| 2026-05-05 20:23 | 1.91636 | -76.83167 | 34074 ft | 467 kts | 222° |
| 2026-05-05 20:23 | 1.86936 | -76.87623 | 34072 ft | 463 kts | 223° |
| 2026-05-05 20:24 | 1.82308 | -76.92010 | 34073 ft | 462 kts | 223° |
| 2026-05-05 20:24 | 1.77607 | -76.96466 | 34069 ft | 470 kts | 222° |
| 2026-05-05 20:25 | 1.72850 | -77.00976 | 34059 ft | 472 kts | 222° |
| 2026-05-05 20:25 | 1.68074 | -77.05504 | 34054 ft | 473 kts | 222° |
| 2026-05-05 20:26 | 1.63299 | -77.10029 | 34071 ft | 473 kts | 222° |
| 2026-05-05 20:26 | 1.58560 | -77.14522 | 34101 ft | 472 kts | 222° |
| 2026-05-05 20:27 | 1.53802 | -77.19031 | 34115 ft | 471 kts | 222° |
| 2026-05-05 20:27 | 1.49050 | -77.23535 | 34131 ft | 470 kts | 222° |
| 2026-05-05 20:28 | 1.44307 | -77.28029 | 34132 ft | 469 kts | 222° |
| 2026-05-05 20:28 | 1.39606 | -77.32484 | 34136 ft | 468 kts | 222° |
| 2026-05-05 20:29 | 1.34878 | -77.36963 | 34130 ft | 468 kts | 222° |
| 2026-05-05 20:29 | 1.30152 | -77.41441 | 34120 ft | 468 kts | 222° |
| 2026-05-05 20:30 | 1.25434 | -77.45912 | 34118 ft | 468 kts | 222° |
| 2026-05-05 20:30 | 1.20736 | -77.50363 | 34106 ft | 469 kts | 223° |
| 2026-05-05 20:31 | 1.15998 | -77.54851 | 34147 ft | 469 kts | 222° |
| 2026-05-05 20:31 | 1.11259 | -77.59340 | 34218 ft | 470 kts | 222° |
| 2026-05-05 20:32 | 1.06518 | -77.63831 | 34281 ft | 470 kts | 222° |
| 2026-05-05 20:32 | 1.01803 | -77.68298 | 34331 ft | 470 kts | 222° |
| 2026-05-05 20:33 | 0.97057 | -77.72793 | 34366 ft | 470 kts | 222° |
| 2026-05-05 20:33 | 0.92314 | -77.77286 | 34374 ft | 470 kts | 222° |
| 2026-05-05 20:34 | 0.87555 | -77.81794 | 34414 ft | 471 kts | 223° |
| 2026-05-05 20:34 | 0.82790 | -77.86308 | 34379 ft | 473 kts | 223° |
| 2026-05-05 20:35 | 0.77807 | -77.90517 | 34338 ft | 472 kts | 215° |
| 2026-05-05 20:35 | 0.72510 | -77.94385 | 34263 ft | 469 kts | 215° |
| 2026-05-05 20:36 | 0.67265 | -77.98218 | 34212 ft | 466 kts | 215° |
| 2026-05-05 20:36 | 0.64661 | -78.00141 | 33833 ft | 467 kts | 215° |
| 2026-05-05 20:36 | 0.62061 | -78.02069 | 33378 ft | 463 kts | 215° |
| 2026-05-05 20:36 | 0.59526 | -78.03952 | 32870 ft | 459 kts | 215° |
| 2026-05-05 20:37 | 0.56979 | -78.05845 | 32389 ft | 455 kts | 215° |
| 2026-05-05 20:37 | 0.55269 | -78.07115 | 32055 ft | 452 kts | 215° |
| 2026-05-05 20:37 | 0.51937 | -78.09588 | 31411 ft | 448 kts | 215° |
| 2026-05-05 20:37 | 0.49448 | -78.11434 | 30926 ft | 445 kts | 215° |
| 2026-05-05 20:38 | 0.46973 | -78.13274 | 30462 ft | 442 kts | 215° |
| 2026-05-05 20:38 | 0.44513 | -78.15106 | 29925 ft | 440 kts | 215° |
| 2026-05-05 20:38 | 0.42070 | -78.16926 | 29397 ft | 437 kts | 215° |
| 2026-05-05 20:38 | 0.39673 | -78.18713 | 28895 ft | 433 kts | 215° |
| 2026-05-05 20:39 | 0.37266 | -78.20506 | 28404 ft | 430 kts | 215° |
| 2026-05-05 20:39 | 0.34884 | -78.22281 | 27916 ft | 426 kts | 215° |
| 2026-05-05 20:39 | 0.32512 | -78.24048 | 27442 ft | 423 kts | 215° |
| 2026-05-05 20:39 | 0.30164 | -78.25797 | 26977 ft | 420 kts | 215° |
| 2026-05-05 20:40 | 0.27831 | -78.27535 | 26514 ft | 417 kts | 215° |
| 2026-05-05 20:40 | 0.25512 | -78.29262 | 26033 ft | 415 kts | 216° |
| 2026-05-05 20:40 | 0.23201 | -78.30984 | 25557 ft | 413 kts | 216° |
| 2026-05-05 20:40 | 0.20899 | -78.32699 | 25106 ft | 412 kts | 216° |
| 2026-05-05 20:41 | 0.18635 | -78.34385 | 24630 ft | 411 kts | 216° |
| 2026-05-05 20:41 | 0.16351 | -78.36085 | 24208 ft | 409 kts | 216° |
| 2026-05-05 20:41 | 0.14074 | -78.37781 | 23698 ft | 404 kts | 216° |
| 2026-05-05 20:41 | 0.11845 | -78.39443 | 23176 ft | 394 kts | 216° |
| 2026-05-05 20:42 | 0.09681 | -78.41057 | 22726 ft | 384 kts | 216° |
| 2026-05-05 20:42 | 0.07559 | -78.42638 | 22298 ft | 376 kts | 216° |
| 2026-05-05 20:42 | 0.05464 | -78.44198 | 21860 ft | 375 kts | 216° |
| 2026-05-05 20:42 | 0.03378 | -78.45751 | 21445 ft | 373 kts | 216° |
| 2026-05-05 20:43 | 0.01301 | -78.47298 | 21021 ft | 372 kts | 216° |
| 2026-05-05 20:43 | -0.00742 | -78.48820 | 20607 ft | 370 kts | 216° |
| 2026-05-05 20:43 | -0.02874 | -78.50244 | 20148 ft | 368 kts | 202° |
| 2026-05-05 20:43 | -0.05298 | -78.50931 | 19749 ft | 361 kts | 182° |
| 2026-05-05 20:44 | -0.07795 | -78.50866 | 19341 ft | 357 kts | 173° |
| 2026-05-05 20:44 | -0.10259 | -78.50628 | 18903 ft | 357 kts | 172° |
| 2026-05-05 20:44 | -0.12734 | -78.50392 | 18476 ft | 357 kts | 173° |
| 2026-05-05 20:44 | -0.15203 | -78.50170 | 18096 ft | 355 kts | 172° |
| 2026-05-05 20:45 | -0.20070 | -78.49751 | 17241 ft | 352 kts | 173° |
| 2026-05-05 20:45 | -0.22495 | -78.49544 | 16897 ft | 348 kts | 173° |
| 2026-05-05 20:45 | -0.24864 | -78.49344 | 16566 ft | 335 kts | 173° |
| 2026-05-05 20:46 | -0.27145 | -78.49151 | 16261 ft | 323 kts | 172° |
| 2026-05-05 20:46 | -0.29343 | -78.48963 | 15983 ft | 312 kts | 172° |
| 2026-05-05 20:46 | -0.31472 | -78.48782 | 15700 ft | 302 kts | 172° |
| 2026-05-05 20:46 | -0.33528 | -78.48607 | 15446 ft | 292 kts | 172° |
| 2026-05-05 20:47 | -0.35517 | -78.48433 | 15183 ft | 282 kts | 169° |
| 2026-05-05 20:47 | -0.37327 | -78.47939 | 14932 ft | 267 kts | 151° |
| 2026-05-05 20:47 | -0.38843 | -78.46964 | 14724 ft | 254 kts | 137° |
| 2026-05-05 20:47 | -0.40095 | -78.45799 | 14544 ft | 238 kts | 132° |
| 2026-05-05 20:48 | -0.41193 | -78.44631 | 14344 ft | 224 kts | 130° |
| 2026-05-05 20:48 | -0.42109 | -78.43389 | 14033 ft | 226 kts | 110° |
| 2026-05-05 20:48 | -0.42283 | -78.41858 | 13805 ft | 225 kts | 81° |
| 2026-05-05 20:48 | -0.41632 | -78.40438 | 13516 ft | 229 kts | 51° |
| 2026-05-05 20:49 | -0.40355 | -78.39484 | 13191 ft | 233 kts | 32° |
| 2026-05-05 20:49 | -0.38887 | -78.38769 | 12828 ft | 232 kts | 27° |
| 2026-05-05 20:49 | -0.37449 | -78.38116 | 12545 ft | 222 kts | 27° |
| 2026-05-05 20:49 | -0.36095 | -78.37495 | 12254 ft | 213 kts | 28° |
| 2026-05-05 20:50 | -0.34785 | -78.36883 | 12019 ft | 205 kts | 28° |
| 2026-05-05 20:50 | -0.33918 | -78.36473 | 11887 ft | 204 kts | 27° |
| 2026-05-05 20:50 | -0.32230 | -78.35673 | 11572 ft | 202 kts | 26° |
| 2026-05-05 20:50 | -0.30960 | -78.35071 | 11320 ft | 202 kts | 25° |
| 2026-05-05 20:51 | -0.29624 | -78.34695 | 11055 ft | 202 kts | 360° |
| 2026-05-05 20:51 | -0.28235 | -78.34766 | 10832 ft | 198 kts | 358° |
| 2026-05-05 20:51 | -0.26874 | -78.34815 | 10527 ft | 195 kts | 360° |
| 2026-05-05 20:51 | -0.25544 | -78.34866 | 10268 ft | 186 kts | 358° |
| 2026-05-05 20:52 | -0.24308 | -78.34920 | 10019 ft | 176 kts | 358° |
| 2026-05-05 20:52 | -0.23090 | -78.34974 | 9788 ft | 175 kts | 358° |
| 2026-05-05 20:52 | -0.21882 | -78.35026 | 9595 ft | 172 kts | 358° |
| 2026-05-05 20:52 | -0.20690 | -78.35078 | 9337 ft | 170 kts | 358° |
| 2026-05-05 20:53 | -0.19501 | -78.35130 | 9095 ft | 172 kts | 358° |
| 2026-05-05 20:53 | -0.18305 | -78.35182 | 8848 ft | 171 kts | 358° |
| 2026-05-05 20:53 | -0.18115 | -78.35191 | 8804 ft | 171 kts | 358° |
| 2026-05-05 20:53 | -0.16954 | -78.35243 | 8533 ft | 162 kts | 358° |
| 2026-05-05 20:54 | -0.15879 | -78.35286 | 8294 ft | 151 kts | 356° |
| 2026-05-05 20:54 | -0.14844 | -78.35345 | 8114 ft | 150 kts | 359° |
| 2026-05-05 20:54 | -0.13781 | -78.35390 | 7896 ft | 150 kts | 357° |
| 2026-05-05 20:54 | -0.12876 | -78.35425 | 7865 ft | 108 kts | 358° |
| 2026-05-05 20:55 | -0.12280 | -78.35450 | 7835 ft | 64 kts | 358° |
| 2026-05-05 20:55 | -0.11990 | -78.35462 | 7825 ft | 23 kts | 358° |
| 2026-05-05 20:55 | -0.11846 | -78.35474 | 7821 ft | 19 kts | 350° |
| 2026-05-05 20:55 | -0.11728 | -78.35518 | 7818 ft | 18 kts | 335° |
| 2026-05-05 20:56 | -0.11637 | -78.35569 | 7815 ft | 12 kts | 323° |
| 2026-05-05 20:56 | -0.11612 | -78.35614 | 7814 ft | 7 kts | 262° |
| 2026-05-05 20:56 | -0.11646 | -78.35643 | 7815 ft | 7 kts | 192° |
| 2026-05-05 20:56 | -0.11694 | -78.35643 | 7817 ft | 7 kts | 179° |
| 2026-05-05 20:57 | -0.11740 | -78.35641 | 7819 ft | 7 kts | 178° |
| 2026-05-05 20:57 | -0.11787 | -78.35640 | 7821 ft | 8 kts | 178° |
| 2026-05-05 20:57 | -0.11852 | -78.35637 | 7823 ft | 11 kts | 178° |
| 2026-05-05 20:57 | -0.11935 | -78.35633 | 7827 ft | 13 kts | 177° |
| 2026-05-05 20:58 | -0.12021 | -78.35629 | 7832 ft | 12 kts | 177° |
| 2026-05-05 20:58 | -0.12105 | -78.35626 | 7837 ft | 12 kts | 178° |
| 2026-05-05 20:58 | -0.12185 | -78.35623 | 7839 ft | 12 kts | 178° |
| 2026-05-05 20:58 | -0.12267 | -78.35620 | 7840 ft | 12 kts | 178° |
| 2026-05-05 20:59 | -0.12347 | -78.35639 | 7840 ft | 13 kts | 236° |
| 2026-05-05 20:59 | -0.12361 | -78.35724 | 7831 ft | 12 kts | 268° |
| 2026-05-05 20:59 | -0.12366 | -78.35808 | 7840 ft | 12 kts | 259° |
| 2026-05-05 20:59 | -0.12374 | -78.35869 | 7840 ft | 7 kts | 266° |
| 2026-05-05 21:00 | -0.12376 | -78.35914 | 7836 ft | 5 kts | 268° |
| 2026-05-05 21:00 | -0.12376 | -78.35926 | 7840 ft | 0 kts | 268° |